Main page
METAR-TAF:

METAR-TAF

Airports :

Huesca, Spain

Huesca–Pirineos Airport

latitude: 42-04-32N, longitude: 0-18-58W, elevation: 539 m

Current weather observation

The report was made 38 minutes ago, at 15:00 UTC
Wind 7 kt from the West/Southwest, varying between South/Southwest and West/Northwest
Temperature 15°C
Humidity 72%
Pressure 1026 hPa
Visibility 10 km or more
Few clouds at a height of 3000 ft

METAR: LEHC 231500Z 25007KT 210V290 9999 FEW030 15/10 Q1026

Time: 16:38 (15:38 UTC)

Forecast

The report was made 1 hour and 38 minutes ago, at 14:00 UTC
Forecast valid from 23 at 15 UTC to 24 at 15 UTC
Wind 6 kt from the West
Visibility 10 km or more
Few clouds at a height of 3000 ft
Becoming
from 23 at 18 UTC to 23 at 20 UTC
Wind 3 kt from variable directions
Becoming
from 24 at 01 UTC to 24 at 03 UTC
Wind 8 kt from the East

TAF: LEHC 231400Z 2315/2415 28006KT 9999 FEW030 TX19/2414Z TN04/2407Z BECMG 2318/2320 VRB03KT BECMG 2401/2403 09008KT

Weather observations and forecasts of more than 4000 airports (METAR and TAF reports).

The available stations are represented by yellow and red dots on the map.

Hover mouse over dot to see the name of the station.

Then click to see weather observations and forecasts.

To change the map : click on the green buttons with a black cross to zoom in, on the green button with a dash to zoom out, or on the green arrows for adjacent maps.


METAR-TAF: